Time;durP1;ratioP1;P1;durP2;ratioP2;P2;SDS_P1;SDS_P2;PMS_P1;PMS_P2;Temp;Humidity;BMP_temperature;BMP_pressure;BME280_temperature;BME280_humidity;BME280_pressure;Samples;Min_cycle;Max_cycle;Signal;HPM_P1;HPM_P2
2023/07/05 00:01:31;;;;;;;9.23;2.97;;;;;;;;;;5038953;28;20403;-73
2023/07/05 00:03:57;;;;;;;7.00;2.75;;;;;;;;;;5030067;28;20727;-73
2023/07/05 00:06:23;;;;;;;8.70;2.90;;;;;;;;;;5031849;28;20032;-74
2023/07/05 00:08:50;;;;;;;8.07;2.92;;;;;;;;;;5031865;28;20364;-74
2023/07/05 00:11:17;;;;;;;8.32;3.30;;;;;;;;;;5032041;28;20025;-72
2023/07/05 00:13:43;;;;;;;6.57;2.80;;;;;;;;;;5031230;28;20025;-72
2023/07/05 00:16:10;;;;;;;5.93;2.70;;;;;;;;;;5031626;28;20030;-72
2023/07/05 00:18:36;;;;;;;7.78;3.00;;;;;;;;;;5032453;28;20031;-73
2023/07/05 00:21:03;;;;;;;9.82;2.80;;;;;;;;;;5031547;28;20476;-73
2023/07/05 00:23:30;;;;;;;9.15;2.58;;;;;;;;;;5031393;28;20124;-74
2023/07/05 00:25:56;;;;;;;8.80;3.17;;;;;;;;;;5031653;28;20578;-72
2023/07/05 00:28:22;;;;;;;11.25;3.28;;;;;;;;;;5031639;28;20570;-73
2023/07/05 00:30:48;;;;;;;12.38;3.03;;;;;;;;;;5031689;28;20053;-73
2023/07/05 00:33:14;;;;;;;10.57;2.85;;;;;;;;;;5030940;28;20100;-73
2023/07/05 00:35:48;;;;;;;6.43;2.70;;;;;;;;;;5031919;28;20451;-73
2023/07/05 00:38:14;;;;;;;6.78;2.75;;;;;;;;;;5031378;28;20104;-73
2023/07/05 00:40:40;;;;;;;9.18;2.65;;;;;;;;;;5031532;28;20546;-72
2023/07/05 00:43:06;;;;;;;10.52;3.30;;;;;;;;;;5030488;28;20083;-73
2023/07/05 00:45:44;;;;;;;14.38;3.72;;;;;;;;;;5031163;28;20475;-73
2023/07/05 00:48:14;;;;;;;10.32;2.55;;;;;;;;;;5031014;28;20029;-73
2023/07/05 00:50:41;;;;;;;10.27;2.92;;;;;;;;;;5031313;28;20088;-72
2023/07/05 00:53:09;;;;;;;9.80;2.92;;;;;;;;;;5030245;28;20033;-73
2023/07/05 00:55:35;;;;;;;6.38;3.08;;;;;;;;;;5030560;28;20030;-73
2023/07/05 00:58:02;;;;;;;14.73;3.28;;;;;;;;;;5030840;28;20119;-73
2023/07/05 01:00:29;;;;;;;8.98;2.97;;;;;;;;;;5030854;28;20033;-73
2023/07/05 01:02:56;;;;;;;8.13;3.03;;;;;;;;;;5030150;28;20023;-73
2023/07/05 01:05:23;;;;;;;14.25;3.30;;;;;;;;;;5031196;28;20491;-74
2023/07/05 01:07:49;;;;;;;8.10;3.13;;;;;;;;;;5030555;28;20036;-73
2023/07/05 01:10:18;;;;;;;13.40;3.45;;;;;;;;;;5030926;28;20029;-73
2023/07/05 01:12:59;;;;;;;10.90;3.35;;;;;;;;;;5030337;28;20021;-73
2023/07/05 01:15:32;;;;;;;7.72;2.85;;;;;;;;;;5031615;28;20042;-74
2023/07/05 01:17:58;;;;;;;10.35;3.03;;;;;;;;;;5031079;28;20068;-73
2023/07/05 01:20:29;;;;;;;13.18;3.53;;;;;;;;;;5030684;28;20450;-73
2023/07/05 01:22:54;;;;;;;7.97;3.45;;;;;;;;;;5030066;28;20025;-74
2023/07/05 01:25:32;;;;;;;10.75;3.38;;;;;;;;;;5030514;28;20406;-74
2023/07/05 01:27:58;;;;;;;15.95;3.75;;;;;;;;;;5030588;28;20483;-73
2023/07/05 01:30:33;;;;;;;11.25;3.55;;;;;;;;;;5032103;28;20028;-74
2023/07/05 01:32:59;;;;;;;;;;;;;;;;;;5036864;28;20052;-74
2023/07/05 01:35:30;;;;;;;10.32;3.50;;;;;;;;;;5030853;28;19915;-73
2023/07/05 01:37:56;;;;;;;12.77;3.97;;;;;;;;;;5031398;28;20033;-72
2023/07/05 01:40:22;;;;;;;16.27;3.60;;;;;;;;;;5031133;28;20022;-74
2023/07/05 01:42:51;;;;;;;13.90;4.25;;;;;;;;;;5033188;28;20130;-74
2023/07/05 01:45:19;;;;;;;15.10;4.00;;;;;;;;;;5036215;28;20025;-73
2023/07/05 01:47:57;;;;;;;11.02;4.10;;;;;;;;;;5036808;28;20028;-74
2023/07/05 01:50:23;;;;;;;14.90;4.72;;;;;;;;;;5037244;28;20048;-73
2023/07/05 01:53:27;;;;;;;19.25;4.35;;;;;;;;;;5035704;28;20071;-75
2023/07/05 01:56:02;;;;;;;14.30;4.50;;;;;;;;;;4975989;28;20448;-73
2023/07/05 01:58:29;;;;;;;22.48;4.82;;;;;;;;;;4975009;28;20058;-74
2023/07/05 02:00:57;;;;;;;12.30;4.30;;;;;;;;;;5006780;28;20037;-74
2023/07/05 02:03:24;;;;;;;18.83;4.50;;;;;;;;;;5035422;28;20017;-74
2023/07/05 02:05:50;;;;;;;15.07;5.28;;;;;;;;;;5036946;28;20033;-75
2023/07/05 02:08:17;;;;;;;17.08;5.20;;;;;;;;;;5038076;28;20026;-73
2023/07/05 02:10:43;;;;;;;13.15;4.55;;;;;;;;;;5036734;28;20114;-73
2023/07/05 02:13:10;;;;;;;25.13;5.38;;;;;;;;;;5036992;28;20033;-74
2023/07/05 02:15:40;;;;;;;18.73;5.40;;;;;;;;;;5043082;28;20048;-74
2023/07/05 02:18:07;;;;;;;17.33;5.10;;;;;;;;;;5035400;28;20037;-73
2023/07/05 02:20:33;;;;;;;13.88;5.15;;;;;;;;;;5034965;28;20034;-73
2023/07/05 02:22:59;;;;;;;17.77;6.15;;;;;;;;;;5036593;28;20079;-72
2023/07/05 02:25:25;;;;;;;22.48;5.43;;;;;;;;;;5038670;28;20029;-75
2023/07/05 02:27:51;;;;;;;23.52;7.03;;;;;;;;;;5030029;28;20014;-73
2023/07/05 02:30:18;;;;;;;25.15;7.15;;;;;;;;;;5024739;28;20022;-74
2023/07/05 02:32:44;;;;;;;24.33;5.68;;;;;;;;;;5029831;28;20017;-73
2023/07/05 02:35:10;;;;;;;20.23;6.20;;;;;;;;;;5040855;28;20108;-73
2023/07/05 02:37:36;;;;;;;20.98;6.20;;;;;;;;;;5040888;28;20061;-73
2023/07/05 02:40:03;;;;;;;18.67;6.28;;;;;;;;;;5041810;28;20029;-74
2023/07/05 02:42:29;;;;;;;17.13;6.57;;;;;;;;;;5039923;28;20039;-72
2023/07/05 02:44:55;;;;;;;18.90;6.25;;;;;;;;;;5042912;28;20062;-74
2023/07/05 02:47:21;;;;;;;17.17;5.95;;;;;;;;;;5042132;28;20026;-74
2023/07/05 02:49:47;;;;;;;18.20;6.07;;;;;;;;;;5041191;28;20097;-73
2023/07/05 02:52:14;;;;;;;23.23;6.00;;;;;;;;;;5043050;28;20104;-74
2023/07/05 02:54:40;;;;;;;22.50;6.55;;;;;;;;;;5043923;28;20048;-74
2023/07/05 02:57:06;;;;;;;25.73;7.20;;;;;;;;;;5043953;28;20071;-73
2023/07/05 02:59:32;;;;;;;22.38;6.30;;;;;;;;;;5043904;28;20052;-73
2023/07/05 03:01:58;;;;;;;20.02;5.93;;;;;;;;;;5042069;28;20053;-74
2023/07/05 03:04:25;;;;;;;27.58;6.13;;;;;;;;;;5041425;28;20360;-73
2023/07/05 03:06:51;;;;;;;16.80;5.90;;;;;;;;;;5041277;28;20022;-73
2023/07/05 03:09:19;;;;;;;20.92;5.68;;;;;;;;;;5033226;28;20422;-72
2023/07/05 03:11:46;;;;;;;20.55;5.82;;;;;;;;;;5032492;28;20564;-74
2023/07/05 03:14:11;;;;;;;23.45;6.57;;;;;;;;;;5032386;28;20418;-74
2023/07/05 03:16:37;;;;;;;25.33;6.00;;;;;;;;;;5033002;28;20028;-73
2023/07/05 03:19:03;;;;;;;23.98;5.57;;;;;;;;;;5032402;28;20029;-73
2023/07/05 03:21:29;;;;;;;15.25;5.85;;;;;;;;;;5032335;28;20113;-73
2023/07/05 03:23:55;;;;;;;20.17;5.57;;;;;;;;;;5032456;28;20449;-73
2023/07/05 03:26:21;;;;;;;24.65;6.15;;;;;;;;;;5033705;28;20022;-73
2023/07/05 03:28:47;;;;;;;22.08;5.80;;;;;;;;;;5033347;28;20468;-73
2023/07/05 03:31:15;;;;;;;20.60;5.90;;;;;;;;;;5032940;28;20102;-74
2023/07/05 03:33:41;;;;;;;15.85;5.38;;;;;;;;;;5031032;28;20056;-74
2023/07/05 03:36:16;;;;;;;19.42;5.40;;;;;;;;;;5034109;28;20472;-72
2023/07/05 03:38:42;;;;;;;25.33;5.57;;;;;;;;;;5034594;28;20037;-73
2023/07/05 03:41:12;;;;;;;18.38;5.50;;;;;;;;;;5038754;28;20030;-73
2023/07/05 03:43:39;;;;;;;22.27;5.95;;;;;;;;;;5035435;28;20402;-74
2023/07/05 03:46:06;;;;;;;23.23;5.05;;;;;;;;;;5036095;28;20039;-73
2023/07/05 03:48:34;;;;;;;16.70;5.03;;;;;;;;;;5036260;28;20039;-75
2023/07/05 03:51:00;;;;;;;16.95;5.40;;;;;;;;;;5034114;28;20121;-74
2023/07/05 03:53:26;;;;;;;18.17;5.43;;;;;;;;;;5031960;28;20029;-73
2023/07/05 03:55:52;;;;;;;18.77;4.97;;;;;;;;;;5032236;28;20404;-73
2023/07/05 03:58:19;;;;;;;19.35;5.20;;;;;;;;;;5030615;28;20034;-72
2023/07/05 04:00:45;;;;;;;24.13;7.18;;;;;;;;;;5030424;28;20029;-72
2023/07/05 04:03:12;;;;;;;20.13;5.75;;;;;;;;;;5031227;28;20025;-73
2023/07/05 04:05:38;;;;;;;17.02;5.57;;;;;;;;;;5031006;28;20045;-72
2023/07/05 04:08:04;;;;;;;27.98;5.88;;;;;;;;;;5031957;28;20096;-72
2023/07/05 04:10:30;;;;;;;23.75;5.90;;;;;;;;;;5032152;28;20018;-72
2023/07/05 04:12:56;;;;;;;16.52;5.93;;;;;;;;;;5031223;28;20092;-75
2023/07/05 04:15:22;;;;;;;26.27;6.05;;;;;;;;;;5032197;28;20383;-73
2023/07/05 04:17:48;;;;;;;20.02;5.80;;;;;;;;;;5031784;28;20026;-74
2023/07/05 04:20:17;;;;;;;24.08;5.80;;;;;;;;;;5032075;28;20037;-74
2023/07/05 04:22:44;;;;;;;22.65;7.35;;;;;;;;;;5030881;28;20034;-73
2023/07/05 04:25:10;;;;;;;16.80;6.20;;;;;;;;;;5031349;28;20025;-74
2023/07/05 04:27:36;;;;;;;17.65;5.95;;;;;;;;;;5032004;28;20452;-74
2023/07/05 04:30:03;;;;;;;18.80;6.05;;;;;;;;;;5032498;28;20048;-73
2023/07/05 04:32:30;;;;;;;16.33;6.40;;;;;;;;;;5031943;28;20033;-71
2023/07/05 04:34:56;;;;;;;15.75;6.60;;;;;;;;;;5032321;28;20033;-73
2023/07/05 04:37:22;;;;;;;20.10;6.65;;;;;;;;;;5032364;28;20092;-72
2023/07/05 04:39:48;;;;;;;26.08;7.35;;;;;;;;;;5032369;28;20041;-73
2023/07/05 04:42:14;;;;;;;19.90;7.25;;;;;;;;;;5031928;28;20101;-73
2023/07/05 04:44:40;;;;;;;21.90;7.13;;;;;;;;;;5032226;28;20077;-73
2023/07/05 04:47:06;;;;;;;17.95;7.38;;;;;;;;;;5033150;28;20056;-74
2023/07/05 04:49:32;;;;;;;22.38;8.18;;;;;;;;;;5033681;28;20026;-74
2023/07/05 04:51:58;;;;;;;20.35;6.45;;;;;;;;;;5041834;28;20056;-75
2023/07/05 04:54:24;;;;;;;14.52;7.13;;;;;;;;;;5041256;28;20052;-76
2023/07/05 04:56:50;;;;;;;16.30;7.00;;;;;;;;;;5041259;28;20036;-73
2023/07/05 04:59:16;;;;;;;20.60;7.20;;;;;;;;;;5033623;28;20037;-73
2023/07/05 05:01:42;;;;;;;18.13;7.25;;;;;;;;;;5032404;28;20078;-73
2023/07/05 05:04:08;;;;;;;21.42;7.65;;;;;;;;;;5032506;28;20087;-74
2023/07/05 05:06:34;;;;;;;19.13;7.25;;;;;;;;;;5033340;28;20028;-74
2023/07/05 05:09:00;;;;;;;27.33;8.15;;;;;;;;;;5034733;28;20442;-75
2023/07/05 05:11:27;;;;;;;24.27;8.15;;;;;;;;;;5032178;28;20030;-74
2023/07/05 05:13:53;;;;;;;23.27;7.70;;;;;;;;;;5031823;28;20079;-74
2023/07/05 05:16:19;;;;;;;19.98;8.02;;;;;;;;;;5032474;28;20037;-75
2023/07/05 05:18:45;;;;;;;25.88;8.52;;;;;;;;;;5032149;28;20104;-74
2023/07/05 05:21:11;;;;;;;22.42;8.93;;;;;;;;;;5031578;28;20125;-74
2023/07/05 05:23:38;;;;;;;22.67;8.98;;;;;;;;;;5031951;28;20025;-74
2023/07/05 05:26:04;;;;;;;16.08;7.78;;;;;;;;;;5031921;28;20053;-77
2023/07/05 05:28:30;;;;;;;20.23;9.00;;;;;;;;;;5035205;28;20064;-75
2023/07/05 05:31:06;;;;;;;29.30;9.23;;;;;;;;;;5045716;28;20025;-75
2023/07/05 05:33:32;;;;;;;20.55;9.52;;;;;;;;;;5035261;28;20036;-74
2023/07/05 05:35:58;;;;;;;25.92;9.48;;;;;;;;;;5039619;28;20093;-77
2023/07/05 05:38:24;;;;;;;32.13;10.32;;;;;;;;;;5038672;28;20131;-73
2023/07/05 05:40:51;;;;;;;27.73;10.40;;;;;;;;;;5051029;28;20033;-72
2023/07/05 05:43:17;;;;;;;23.35;9.32;;;;;;;;;;5051379;28;20050;-73
2023/07/05 05:45:43;;;;;;;26.77;10.38;;;;;;;;;;5052323;28;20314;-73
2023/07/05 05:48:09;;;;;;;26.67;10.95;;;;;;;;;;5052079;28;20490;-72
2023/07/05 05:50:35;;;;;;;28.80;10.48;;;;;;;;;;5051887;28;20045;-72
2023/07/05 05:53:02;;;;;;;23.92;10.35;;;;;;;;;;5050993;28;20551;-73
2023/07/05 05:55:28;;;;;;;23.58;9.90;;;;;;;;;;5051830;28;20383;-72
2023/07/05 05:57:54;;;;;;;22.23;9.90;;;;;;;;;;5050916;28;20021;-72
2023/07/05 06:00:20;;;;;;;23.33;11.15;;;;;;;;;;5051582;28;20131;-73
2023/07/05 06:02:46;;;;;;;25.25;10.65;;;;;;;;;;5050906;28;20069;-71
2023/07/05 06:05:12;;;;;;;22.52;10.52;;;;;;;;;;5051045;28;20107;-72
2023/07/05 06:07:38;;;;;;;23.58;10.32;;;;;;;;;;5051040;28;20036;-72
2023/07/05 06:10:04;;;;;;;26.63;10.02;;;;;;;;;;5051179;28;20021;-72
2023/07/05 06:12:30;;;;;;;30.77;10.45;;;;;;;;;;5042654;28;20103;-73
2023/07/05 06:14:56;;;;;;;32.35;11.50;;;;;;;;;;5030761;28;20061;-72
2023/07/05 06:17:22;;;;;;;24.85;10.95;;;;;;;;;;5031159;28;20506;-72
2023/07/05 06:19:48;;;;;;;33.15;11.57;;;;;;;;;;5031002;28;20025;-72
2023/07/05 06:22:14;;;;;;;27.08;10.90;;;;;;;;;;5030440;28;20022;-73
2023/07/05 06:24:42;;;;;;;28.27;11.32;;;;;;;;;;5033071;28;20022;-73
2023/07/05 06:27:08;;;;;;;30.50;12.55;;;;;;;;;;5040395;28;20029;-74
2023/07/05 06:29:34;;;;;;;25.25;11.30;;;;;;;;;;5037570;28;20022;-72
2023/07/05 06:32:00;;;;;;;33.00;12.30;;;;;;;;;;5035050;28;20087;-72
2023/07/05 06:34:26;;;;;;;26.65;10.75;;;;;;;;;;5037097;28;20025;-72
2023/07/05 06:36:52;;;;;;;28.83;12.88;;;;;;;;;;5037558;28;20104;-72
2023/07/05 06:39:18;;;;;;;28.92;12.23;;;;;;;;;;5038422;28;20034;-73
2023/07/05 06:41:44;;;;;;;33.97;12.52;;;;;;;;;;5036417;28;20071;-75
2023/07/05 06:44:10;;;;;;;27.33;12.40;;;;;;;;;;5036497;28;20079;-74
2023/07/05 06:46:36;;;;;;;29.48;12.60;;;;;;;;;;5033690;28;20036;-73
2023/07/05 06:49:02;;;;;;;28.58;14.38;;;;;;;;;;5040647;28;20540;-73
2023/07/05 06:51:28;;;;;;;29.60;12.43;;;;;;;;;;5036569;28;20052;-71
2023/07/05 06:53:54;;;;;;;25.88;12.75;;;;;;;;;;5033465;28;20053;-74
2023/07/05 06:56:20;;;;;;;31.63;12.00;;;;;;;;;;5033919;28;20435;-74
2023/07/05 06:58:46;;;;;;;29.77;13.52;;;;;;;;;;5034684;28;20041;-73
2023/07/05 07:01:12;;;;;;;25.63;12.50;;;;;;;;;;5034950;28;20048;-74
2023/07/05 07:03:38;;;;;;;28.70;12.65;;;;;;;;;;5033112;28;20056;-73
2023/07/05 07:06:04;;;;;;;21.23;13.00;;;;;;;;;;5033690;28;20084;-72
2023/07/05 07:08:33;;;;;;;36.45;13.48;;;;;;;;;;5034069;28;20022;-73
2023/07/05 07:11:03;;;;;;;22.70;11.82;;;;;;;;;;5034159;28;20022;-74
2023/07/05 07:13:29;;;;;;;27.38;13.10;;;;;;;;;;5033988;28;20033;-73
2023/07/05 07:16:11;;;;;;;28.17;14.07;;;;;;;;;;5034832;28;20109;-76
2023/07/05 07:18:38;;;;;;;47.58;22.42;;;;;;;;;;5033953;28;20026;-70
2023/07/05 07:21:08;;;;;;;31.80;14.95;;;;;;;;;;5032624;28;20541;-73
2023/07/05 07:23:35;;;;;;;29.30;15.02;;;;;;;;;;5032563;28;20491;-79
2023/07/05 07:26:05;;;;;;;25.65;11.93;;;;;;;;;;5034452;28;20018;-74
2023/07/05 07:28:31;;;;;;;25.92;11.77;;;;;;;;;;5033487;28;20068;-72
2023/07/05 07:30:57;;;;;;;22.75;11.77;;;;;;;;;;5031906;28;20392;-72
2023/07/05 07:33:24;;;;;;;22.90;11.52;;;;;;;;;;5032657;28;20383;-77
2023/07/05 07:35:50;;;;;;;24.23;11.23;;;;;;;;;;5033074;28;20037;-70
2023/07/05 07:38:16;;;;;;;21.67;11.27;;;;;;;;;;5033867;28;20021;-74
2023/07/05 07:40:42;;;;;;;27.95;11.07;;;;;;;;;;5033387;28;20033;-73
2023/07/05 07:43:09;;;;;;;22.52;12.18;;;;;;;;;;5032132;28;20400;-74
2023/07/05 07:45:35;;;;;;;23.65;11.85;;;;;;;;;;5032996;28;20018;-74
2023/07/05 07:48:01;;;;;;;29.65;12.85;;;;;;;;;;5033023;28;20033;-75
2023/07/05 07:50:27;;;;;;;26.60;12.25;;;;;;;;;;5033337;28;20079;-74
2023/07/05 07:52:53;;;;;;;25.10;11.95;;;;;;;;;;5032048;28;20426;-75
2023/07/05 07:55:21;;;;;;;24.20;11.95;;;;;;;;;;5032863;28;20060;-74
2023/07/05 07:57:46;;;;;;;24.98;12.02;;;;;;;;;;5033656;28;20040;-74
2023/07/05 08:00:13;;;;;;;52.85;17.08;;;;;;;;;;5033402;28;20104;-73
2023/07/05 08:02:39;;;;;;;27.48;12.35;;;;;;;;;;5032512;28;20084;-74
2023/07/05 08:05:14;;;;;;;27.42;11.90;;;;;;;;;;5030180;28;20235;-74
2023/07/05 08:07:40;;;;;;;22.20;11.98;;;;;;;;;;5043313;28;20060;-71
2023/07/05 08:10:06;;;;;;;23.05;11.73;;;;;;;;;;5046465;28;20030;-71
2023/07/05 08:12:32;;;;;;;22.65;11.98;;;;;;;;;;5015406;28;20030;-71
2023/07/05 08:14:58;;;;;;;23.33;11.77;;;;;;;;;;5013967;28;20687;-71
2023/07/05 08:17:24;;;;;;;23.08;11.90;;;;;;;;;;5013000;28;20026;-70
2023/07/05 08:19:50;;;;;;;30.17;12.13;;;;;;;;;;5012976;28;20515;-71
2023/07/05 08:22:16;;;;;;;21.25;11.50;;;;;;;;;;5012228;28;20041;-71
2023/07/05 08:24:42;;;;;;;35.97;18.17;;;;;;;;;;5013017;28;20034;-70
2023/07/05 08:27:08;;;;;;;27.27;16.13;;;;;;;;;;5012763;28;20037;-71
2023/07/05 08:29:34;;;;;;;26.73;12.93;;;;;;;;;;5013246;28;20037;-71
2023/07/05 08:32:00;;;;;;;28.77;13.07;;;;;;;;;;5012593;28;20052;-71
2023/07/05 08:34:26;;;;;;;23.48;12.15;;;;;;;;;;5013140;28;20373;-72
2023/07/05 08:36:52;;;;;;;24.40;12.60;;;;;;;;;;5012921;28;20033;-75
2023/07/05 08:39:18;;;;;;;24.52;12.70;;;;;;;;;;5012623;28;20041;-72
2023/07/05 08:42:00;;;;;;;24.02;11.20;;;;;;;;;;5012241;28;20034;-73
2023/07/05 08:44:45;;;;;;;30.02;14.95;;;;;;;;;;5013286;28;20044;-72
2023/07/05 08:47:20;;;;;;;23.42;11.55;;;;;;;;;;5013207;28;20364;-73
2023/07/05 08:49:50;;;;;;;23.42;12.00;;;;;;;;;;5012851;28;20105;-71
2023/07/05 08:52:24;;;;;;;21.13;12.40;;;;;;;;;;5012295;28;20395;-74
2023/07/05 08:54:55;;;;;;;26.52;11.07;;;;;;;;;;5011450;28;20472;-72
2023/07/05 08:57:26;;;;;;;18.58;10.52;;;;;;;;;;5012570;28;20100;-73
2023/07/05 08:59:56;;;;;;;21.52;9.88;;;;;;;;;;5010976;28;20042;-73
2023/07/05 09:02:23;;;;;;;17.83;9.82;;;;;;;;;;5011888;28;20027;-73
2023/07/05 09:04:49;;;;;;;21.73;10.20;;;;;;;;;;5012133;28;20037;-74
2023/07/05 09:07:30;;;;;;;14.90;8.65;;;;;;;;;;5011923;28;20026;-73
2023/07/05 09:10:12;;;;;;;21.35;8.30;;;;;;;;;;5012093;28;20113;-73
2023/07/05 09:12:47;;;;;;;16.95;7.47;;;;;;;;;;5012187;28;20033;-73
2023/07/05 09:15:23;;;;;;;13.77;7.18;;;;;;;;;;5012004;28;20088;-71
2023/07/05 09:18:07;;;;;;;11.40;6.40;;;;;;;;;;5011802;28;20026;-72
2023/07/05 09:20:35;;;;;;;12.23;4.93;;;;;;;;;;5012022;28;20029;-72
2023/07/05 09:23:03;;;;;;;7.90;4.57;;;;;;;;;;5011365;28;20034;-72
2023/07/05 09:25:31;;;;;;;9.38;4.45;;;;;;;;;;5011703;28;20344;-74
2023/07/05 09:28:04;;;;;;;6.00;3.92;;;;;;;;;;5012252;28;20022;-74
2023/07/05 09:30:30;;;;;;;7.95;4.05;;;;;;;;;;5011797;28;20056;-73
2023/07/05 09:33:04;;;;;;;9.85;4.03;;;;;;;;;;5011483;28;20026;-74
2023/07/05 09:35:31;;;;;;;7.07;3.65;;;;;;;;;;5011854;28;20022;-74
2023/07/05 09:38:02;;;;;;;6.97;3.58;;;;;;;;;;5011905;28;20033;-74
2023/07/05 09:40:30;;;;;;;10.52;4.15;;;;;;;;;;5011599;28;20435;-77
2023/07/05 09:43:09;;;;;;;12.73;3.95;;;;;;;;;;5011529;28;20040;-75
2023/07/05 09:45:35;;;;;;;11.30;3.97;;;;;;;;;;5011665;28;20026;-76
2023/07/05 09:48:03;;;;;;;11.07;3.80;;;;;;;;;;5012355;28;20073;-76
2023/07/05 09:50:29;;;;;;;8.55;3.75;;;;;;;;;;5011900;28;20435;-72
2023/07/05 09:53:00;;;;;;;7.45;3.50;;;;;;;;;;5011303;28;20030;-73
2023/07/05 09:55:27;;;;;;;9.52;3.40;;;;;;;;;;5011985;28;20036;-73
2023/07/05 09:57:53;;;;;;;9.48;3.80;;;;;;;;;;5011577;28;20104;-73
2023/07/05 10:00:19;;;;;;;6.13;3.53;;;;;;;;;;5011950;28;20037;-73
2023/07/05 10:02:48;;;;;;;11.15;3.92;;;;;;;;;;5011057;28;20392;-73
2023/07/05 10:05:14;;;;;;;12.55;6.40;;;;;;;;;;5013452;28;20026;-73
2023/07/05 10:07:52;;;;;;;9.27;4.80;;;;;;;;;;5016209;28;20022;-73
2023/07/05 10:10:18;;;;;;;15.43;8.40;;;;;;;;;;5016175;28;20097;-73
2023/07/05 10:12:44;;;;;;;10.05;4.00;;;;;;;;;;5016271;28;20029;-72
2023/07/05 10:15:21;;;;;;;20.45;7.47;;;;;;;;;;5016430;28;20030;-73
2023/07/05 10:17:47;;;;;;;8.95;4.72;;;;;;;;;;5017350;28;20017;-73
2023/07/05 10:20:24;;;;;;;17.30;5.22;;;;;;;;;;5019661;28;20026;-74
2023/07/05 10:23:04;;;;;;;11.98;3.90;;;;;;;;;;5016888;28;20033;-73
2023/07/05 10:25:34;;;;;;;12.80;4.95;;;;;;;;;;5015954;28;20383;-73
2023/07/05 10:28:02;;;;;;;8.25;4.28;;;;;;;;;;5016083;28;20453;-74
2023/07/05 10:30:29;;;;;;;7.57;3.42;;;;;;;;;;5015050;28;20096;-72
2023/07/05 10:33:09;;;;;;;11.77;3.75;;;;;;;;;;5016299;28;20561;-74
2023/07/05 10:35:43;;;;;;;9.82;4.10;;;;;;;;;;5016108;28;20099;-75
2023/07/05 10:38:39;;;;;;;9.55;3.45;;;;;;;;;;5015430;28;20430;-74
2023/07/05 10:41:12;;;;;;;9.43;3.53;;;;;;;;;;5006066;28;20065;-74
2023/07/05 10:43:39;;;;;;;8.27;3.43;;;;;;;;;;5016877;28;20049;-74
2023/07/05 10:46:05;;;;;;;12.55;2.95;;;;;;;;;;5016944;28;20116;-73
2023/07/05 10:48:42;;;;;;;7.40;3.55;;;;;;;;;;5015867;28;20068;-74
2023/07/05 10:51:16;;;;;;;9.35;3.30;;;;;;;;;;5014942;28;20026;-73
2023/07/05 10:53:43;;;;;;;10.05;3.67;;;;;;;;;;5014123;28;20052;-71
2023/07/05 10:56:21;;;;;;;8.98;3.08;;;;;;;;;;5017774;28;20108;-72
2023/07/05 10:58:50;;;;;;;10.68;4.82;;;;;;;;;;5016720;28;20034;-73
2023/07/05 11:01:26;;;;;;;6.85;3.20;;;;;;;;;;5017085;28;20041;-72
2023/07/05 11:04:13;;;;;;;13.30;2.80;;;;;;;;;;5015821;28;20026;-73
2023/07/05 11:06:40;;;;;;;8.75;2.65;;;;;;;;;;5017727;28;20383;-72
2023/07/05 11:09:08;;;;;;;10.15;2.90;;;;;;;;;;5014339;28;20101;-73
2023/07/05 11:11:38;;;;;;;13.00;2.60;;;;;;;;;;5013949;28;20462;-73
2023/07/05 11:14:06;;;;;;;6.18;2.80;;;;;;;;;;5014030;28;20092;-72
2023/07/05 11:16:32;;;;;;;7.82;2.80;;;;;;;;;;5013230;28;20072;-72
2023/07/05 11:19:06;;;;;;;14.60;2.88;;;;;;;;;;5013980;28;20400;-73
2023/07/05 11:21:35;;;;;;;9.77;2.67;;;;;;;;;;5013851;28;20093;-73
2023/07/05 11:24:02;;;;;;;8.88;3.08;;;;;;;;;;5013874;28;20389;-73
2023/07/05 11:26:38;;;;;;;8.13;2.30;;;;;;;;;;5014063;28;20021;-72
2023/07/05 11:29:24;;;;;;;6.22;2.53;;;;;;;;;;5013828;28;20034;-72
2023/07/05 11:31:50;;;;;;;10.15;3.22;;;;;;;;;;5013402;28;20029;-72
2023/07/05 11:34:25;;;;;;;9.38;2.40;;;;;;;;;;5013569;28;20029;-74
2023/07/05 11:36:51;;;;;;;7.10;2.50;;;;;;;;;;5013785;28;20117;-73
2023/07/05 11:39:36;;;;;;;8.45;2.25;;;;;;;;;;5013824;28;20479;-75
2023/07/05 11:42:02;;;;;;;;;;;;;;;;;;5014258;28;20038;-73
2023/07/05 11:44:30;;;;;;;13.05;2.47;;;;;;;;;;5013721;28;19905;-73
2023/07/05 11:46:56;;;;;;;6.25;2.33;;;;;;;;;;5014206;28;20022;-72
2023/07/05 11:49:22;;;;;;;7.97;2.20;;;;;;;;;;5013453;28;20018;-74
2023/07/05 11:51:53;;;;;;;11.68;2.00;;;;;;;;;;5012422;28;20026;-74
2023/07/05 11:54:22;;;;;;;7.82;2.40;;;;;;;;;;5013244;28;20034;-73
2023/07/05 11:56:49;;;;;;;16.58;2.10;;;;;;;;;;5013679;28;20034;-73
2023/07/05 11:59:17;;;;;;;17.73;2.38;;;;;;;;;;5012943;28;20435;-73
2023/07/05 12:01:44;;;;;;;8.40;2.25;;;;;;;;;;5012770;28;20030;-72
2023/07/05 12:04:12;;;;;;;10.98;2.20;;;;;;;;;;5013261;28;20087;-74
2023/07/05 12:06:39;;;;;;;11.93;2.97;;;;;;;;;;5012818;28;20045;-74
2023/07/05 12:09:09;;;;;;;7.30;1.95;;;;;;;;;;5017238;28;20025;-74
2023/07/05 12:11:40;;;;;;;8.07;2.15;;;;;;;;;;5032257;28;20120;-73
2023/07/05 12:14:07;;;;;;;15.13;2.42;;;;;;;;;;5024655;28;20495;-73
2023/07/05 12:16:33;;;;;;;7.88;2.05;;;;;;;;;;5014524;28;20030;-74
2023/07/05 12:19:00;;;;;;;8.27;2.08;;;;;;;;;;5014532;28;20030;-74
2023/07/05 12:21:26;;;;;;;9.60;1.83;;;;;;;;;;5012878;28;20449;-72
2023/07/05 12:23:56;;;;;;;9.27;2.15;;;;;;;;;;5012391;28;20494;-73
2023/07/05 12:26:27;;;;;;;9.45;2.20;;;;;;;;;;5012845;28;20022;-73
2023/07/05 12:28:53;;;;;;;17.10;2.45;;;;;;;;;;5012359;28;20077;-72
2023/07/05 12:31:21;;;;;;;15.38;2.55;;;;;;;;;;5011312;28;20021;-73
2023/07/05 12:33:54;;;;;;;8.32;2.20;;;;;;;;;;5012238;28;20044;-73
2023/07/05 12:36:20;;;;;;;9.68;2.22;;;;;;;;;;5012865;28;20061;-73
2023/07/05 12:38:48;;;;;;;5.57;2.17;;;;;;;;;;5013469;28;20089;-72
2023/07/05 12:41:16;;;;;;;28.13;3.13;;;;;;;;;;5013393;28;20090;-73
2023/07/05 12:43:42;;;;;;;15.32;2.25;;;;;;;;;;5012501;28;20101;-72
2023/07/05 12:46:16;;;;;;;10.57;1.98;;;;;;;;;;5012969;28;20029;-73
2023/07/05 12:48:42;;;;;;;15.27;2.47;;;;;;;;;;5012895;28;20030;-74
2023/07/05 12:51:19;;;;;;;7.10;2.13;;;;;;;;;;5012617;28;20028;-73
2023/07/05 12:53:45;;;;;;;10.85;2.47;;;;;;;;;;5012845;28;20396;-74
2023/07/05 12:56:12;;;;;;;17.13;2.15;;;;;;;;;;5013539;28;20029;-73
2023/07/05 12:58:49;;;;;;;17.95;2.50;;;;;;;;;;5025234;28;20026;-74
2023/07/05 13:01:18;;;;;;;9.05;3.05;;;;;;;;;;5047577;28;20025;-74
2023/07/05 13:03:45;;;;;;;14.80;2.55;;;;;;;;;;5037721;28;20041;-74
2023/07/05 13:06:11;;;;;;;9.18;1.63;;;;;;;;;;5039638;28;20032;-74
2023/07/05 13:08:46;;;;;;;16.95;2.92;;;;;;;;;;5037474;28;20487;-76
2023/07/05 13:11:16;;;;;;;8.05;1.80;;;;;;;;;;5041447;28;20025;-73
2023/07/05 13:13:42;;;;;;;11.32;1.70;;;;;;;;;;5046191;28;20079;-73
2023/07/05 13:16:19;;;;;;;10.40;1.85;;;;;;;;;;5037541;28;20025;-74
2023/07/05 13:19:04;;;;;;;7.75;2.10;;;;;;;;;;5044981;28;20029;-74
2023/07/05 13:21:43;;;;;;;11.38;1.75;;;;;;;;;;5038947;28;20036;-75
2023/07/05 13:24:18;;;;;;;8.98;1.98;;;;;;;;;;5037671;28;20029;-73
2023/07/05 13:26:45;;;;;;;13.55;1.83;;;;;;;;;;5047546;28;20029;-76
2023/07/05 13:29:25;;;;;;;10.85;1.92;;;;;;;;;;5043520;28;20049;-74
2023/07/05 13:31:51;;;;;;;12.32;2.10;;;;;;;;;;5036130;28;20025;-73
2023/07/05 13:34:17;;;;;;;11.98;1.95;;;;;;;;;;5040100;28;20034;-75
2023/07/05 13:36:44;;;;;;;13.00;2.05;;;;;;;;;;5040792;28;20495;-75
2023/07/05 13:39:14;;;;;;;9.52;1.88;;;;;;;;;;5039649;28;20503;-74
2023/07/05 13:41:40;;;;;;;5.03;1.70;;;;;;;;;;5048323;28;20041;-73
2023/07/05 13:44:17;;;;;;;7.65;1.75;;;;;;;;;;5050043;28;20033;-74
2023/07/05 13:46:44;;;;;;;9.23;2.05;;;;;;;;;;5050558;28;20106;-74
2023/07/05 13:49:10;;;;;;;9.70;1.90;;;;;;;;;;5046657;28;20025;-75
2023/07/05 13:51:39;;;;;;;12.30;2.22;;;;;;;;;;5050344;28;20047;-76
2023/07/05 13:54:05;;;;;;;10.98;1.58;;;;;;;;;;5055108;28;20115;-74
2023/07/05 13:56:31;;;;;;;13.15;1.90;;;;;;;;;;5046206;28;20108;-76
2023/07/05 13:58:57;;;;;;;10.15;1.80;;;;;;;;;;5049863;28;20041;-74
2023/07/05 14:01:24;;;;;;;8.75;1.83;;;;;;;;;;5059310;28;20116;-73
2023/07/05 14:03:50;;;;;;;8.93;2.40;;;;;;;;;;5058452;28;20044;-73
2023/07/05 14:06:17;;;;;;;9.13;2.22;;;;;;;;;;5058655;28;20039;-73
2023/07/05 14:08:43;;;;;;;11.70;2.13;;;;;;;;;;5058747;28;20108;-75
2023/07/05 14:11:16;;;;;;;5.20;1.67;;;;;;;;;;5058714;28;20036;-73
2023/07/05 14:13:42;;;;;;;7.55;1.48;;;;;;;;;;5057804;28;20024;-73
2023/07/05 14:16:12;;;;;;;17.45;2.08;;;;;;;;;;5058128;28;20027;-75
2023/07/05 14:18:38;;;;;;;9.95;1.85;;;;;;;;;;5057797;28;20029;-77
2023/07/05 14:21:04;;;;;;;12.57;2.42;;;;;;;;;;5057485;28;20540;-74
2023/07/05 14:23:31;;;;;;;7.50;1.65;;;;;;;;;;5057579;28;20028;-72
2023/07/05 14:25:57;;;;;;;18.30;2.20;;;;;;;;;;5057497;28;20063;-75
2023/07/05 14:28:23;;;;;;;6.15;2.00;;;;;;;;;;5057746;28;20469;-73
2023/07/05 14:30:51;;;;;;;13.43;1.90;;;;;;;;;;5057617;28;20490;-73
2023/07/05 14:33:19;;;;;;;7.00;1.50;;;;;;;;;;5058758;28;20024;-73
2023/07/05 14:35:45;;;;;;;9.65;1.95;;;;;;;;;;5057637;28;20027;-73
2023/07/05 14:38:11;;;;;;;12.77;1.98;;;;;;;;;;5057757;28;20100;-73